AEE8NA LGAV-LIRN
Flight info
| Callsign | AEE8NA |
|---|---|
| Flight time | 1h 21m |
| Altitude | 36000 |
| Route | KOR UL53 IXONI DCT TIGRA DCT MOKTO DCT DOGUS DCT EKTOL |
| Aircraft | A320/M-SDE3FGHIRWY/LB1 |
Departure
| Time | 2026-02-18 06:27 |
|---|---|
| Airport | Athens Eleftherios Venizelos International Airport (LGAV) |
Arrival
| Time | 2026-02-18 07:49 |
|---|---|
| Airport | Naples International Airport (LIRN) |
| Time | Latitude | Longitude | Altitude | Speed | Heading |
|---|---|---|---|---|---|
| 2026-02-18 05:44 | 37.92873 | 23.94167 | 287 ft | 0 kts | 217° |
| 2026-02-18 06:19 | 37.92882 | 23.94175 | 287 ft | 2 kts | 217° |
| 2026-02-18 06:19 | 37.92894 | 23.94186 | 287 ft | 2 kts | 217° |
| 2026-02-18 06:19 | 37.92906 | 23.94198 | 287 ft | 2 kts | 217° |
| 2026-02-18 06:19 | 37.92913 | 23.94206 | 287 ft | 1 kts | 218° |
| 2026-02-18 06:20 | 37.92926 | 23.94215 | 287 ft | 2 kts | 197° |
| 2026-02-18 06:20 | 37.92941 | 23.94219 | 287 ft | 2 kts | 181° |
| 2026-02-18 06:20 | 37.92956 | 23.94217 | 287 ft | 2 kts | 164° |
| 2026-02-18 06:20 | 37.92970 | 23.94210 | 287 ft | 2 kts | 147° |
| 2026-02-18 06:21 | 37.92981 | 23.94198 | 287 ft | 1 kts | 131° |
| 2026-02-18 06:21 | 37.92985 | 23.94192 | 287 ft | 1 kts | 127° |
| 2026-02-18 06:21 | 37.92986 | 23.94191 | 287 ft | 0 kts | 128° |
| 2026-02-18 06:23 | 37.92982 | 23.94197 | 287 ft | 2 kts | 128° |
| 2026-02-18 06:23 | 37.92955 | 23.94239 | 287 ft | 7 kts | 129° |
| 2026-02-18 06:23 | 37.92920 | 23.94297 | 287 ft | 8 kts | 127° |
| 2026-02-18 06:23 | 37.92882 | 23.94362 | 287 ft | 9 kts | 127° |
| 2026-02-18 06:24 | 37.92839 | 23.94435 | 287 ft | 10 kts | 128° |
| 2026-02-18 06:24 | 37.92774 | 23.94447 | 287 ft | 11 kts | 216° |
| 2026-02-18 06:24 | 37.92709 | 23.94385 | 287 ft | 12 kts | 217° |
| 2026-02-18 06:24 | 37.92641 | 23.94320 | 287 ft | 12 kts | 217° |
| 2026-02-18 06:25 | 37.92572 | 23.94255 | 287 ft | 12 kts | 216° |
| 2026-02-18 06:25 | 37.92504 | 23.94192 | 287 ft | 7 kts | 216° |
| 2026-02-18 06:25 | 37.92477 | 23.94172 | 287 ft | 4 kts | 200° |
| 2026-02-18 06:25 | 37.92440 | 23.94173 | 287 ft | 6 kts | 160° |
| 2026-02-18 06:26 | 37.92415 | 23.94216 | 287 ft | 7 kts | 93° |
| 2026-02-18 06:26 | 37.92416 | 23.94286 | 287 ft | 8 kts | 88° |
| 2026-02-18 06:26 | 37.92419 | 23.94360 | 287 ft | 8 kts | 76° |
| 2026-02-18 06:27 | 37.92634 | 23.94589 | 287 ft | 64 kts | 35° |
| 2026-02-18 06:27 | 37.93197 | 23.95126 | 288 ft | 137 kts | 35° |
| 2026-02-18 06:27 | 37.94075 | 23.95997 | 622 ft | 169 kts | 34° |
| 2026-02-18 06:27 | 37.94920 | 23.96849 | 1620 ft | 157 kts | 34° |
| 2026-02-18 06:28 | 37.95817 | 23.97704 | 2335 ft | 165 kts | 31° |
| 2026-02-18 06:28 | 37.96704 | 23.98539 | 3012 ft | 162 kts | 31° |
| 2026-02-18 06:28 | 37.97623 | 23.99402 | 3540 ft | 167 kts | 33° |
| 2026-02-18 06:28 | 37.98579 | 24.00306 | 3966 ft | 179 kts | 33° |
| 2026-02-18 06:29 | 37.99675 | 24.01208 | 4354 ft | 193 kts | 17° |
| 2026-02-18 06:29 | 38.00998 | 24.01159 | 4690 ft | 204 kts | 332° |
| 2026-02-18 06:29 | 38.02055 | 23.99844 | 5044 ft | 224 kts | 295° |
| 2026-02-18 06:29 | 38.02420 | 23.97884 | 5517 ft | 242 kts | 275° |
| 2026-02-18 06:30 | 38.02501 | 23.95688 | 6036 ft | 258 kts | 273° |
| 2026-02-18 06:30 | 38.02576 | 23.93397 | 6777 ft | 265 kts | 272° |
| 2026-02-18 06:30 | 38.02648 | 23.91052 | 7559 ft | 270 kts | 273° |
| 2026-02-18 06:31 | 38.02802 | 23.86283 | 9116 ft | 276 kts | 272° |
| 2026-02-18 06:31 | 38.02882 | 23.83872 | 9842 ft | 279 kts | 272° |
| 2026-02-18 06:31 | 38.02964 | 23.81370 | 10376 ft | 290 kts | 272° |
| 2026-02-18 06:31 | 38.03046 | 23.78788 | 10685 ft | 307 kts | 272° |
| 2026-02-18 06:32 | 38.03137 | 23.75982 | 10993 ft | 324 kts | 272° |
| 2026-02-18 06:32 | 38.03230 | 23.73087 | 11455 ft | 334 kts | 272° |
| 2026-02-18 06:32 | 38.03324 | 23.70153 | 12089 ft | 337 kts | 272° |
| 2026-02-18 06:32 | 38.03419 | 23.67180 | 12730 ft | 340 kts | 272° |
| 2026-02-18 06:33 | 38.03516 | 23.64148 | 13365 ft | 343 kts | 272° |
| 2026-02-18 06:33 | 38.03765 | 23.61148 | 13951 ft | 347 kts | 285° |
| 2026-02-18 06:33 | 38.04722 | 23.58331 | 14570 ft | 349 kts | 297° |
| 2026-02-18 06:33 | 38.05913 | 23.55633 | 15164 ft | 352 kts | 299° |
| 2026-02-18 06:34 | 38.07115 | 23.52955 | 15713 ft | 355 kts | 298° |
| 2026-02-18 06:34 | 38.08323 | 23.50192 | 16270 ft | 358 kts | 298° |
| 2026-02-18 06:34 | 38.09504 | 23.47423 | 16811 ft | 360 kts | 297° |
| 2026-02-18 06:35 | 38.11857 | 23.41778 | 17856 ft | 366 kts | 297° |
| 2026-02-18 06:35 | 38.13049 | 23.38884 | 18369 ft | 368 kts | 296° |
| 2026-02-18 06:35 | 38.14239 | 23.35984 | 18868 ft | 371 kts | 296° |
| 2026-02-18 06:35 | 38.15426 | 23.33082 | 19357 ft | 373 kts | 296° |
| 2026-02-18 06:36 | 38.16618 | 23.30163 | 19834 ft | 376 kts | 296° |
| 2026-02-18 06:36 | 38.17826 | 23.27199 | 20305 ft | 378 kts | 296° |
| 2026-02-18 06:36 | 38.19031 | 23.24240 | 20761 ft | 381 kts | 296° |
| 2026-02-18 06:36 | 38.20244 | 23.21257 | 21205 ft | 383 kts | 296° |
| 2026-02-18 06:37 | 38.21464 | 23.18253 | 21638 ft | 386 kts | 295° |
| 2026-02-18 06:37 | 38.22708 | 23.15190 | 22068 ft | 388 kts | 295° |
| 2026-02-18 06:37 | 38.23941 | 23.12148 | 22486 ft | 390 kts | 295° |
| 2026-02-18 06:37 | 38.25179 | 23.09092 | 22888 ft | 393 kts | 295° |
| 2026-02-18 06:38 | 38.26443 | 23.05970 | 23293 ft | 395 kts | 295° |
| 2026-02-18 06:38 | 38.27687 | 23.02893 | 23681 ft | 397 kts | 295° |
| 2026-02-18 06:38 | 38.28959 | 22.99745 | 24061 ft | 399 kts | 295° |
| 2026-02-18 06:39 | 38.31503 | 22.93438 | 24765 ft | 404 kts | 295° |
| 2026-02-18 06:39 | 38.32784 | 22.90257 | 25102 ft | 407 kts | 294° |
| 2026-02-18 06:39 | 38.34080 | 22.87044 | 25432 ft | 410 kts | 294° |
| 2026-02-18 06:39 | 38.35398 | 22.83829 | 25752 ft | 412 kts | 294° |
| 2026-02-18 06:40 | 38.36749 | 22.80546 | 26067 ft | 415 kts | 294° |
| 2026-02-18 06:40 | 38.38084 | 22.77300 | 26375 ft | 418 kts | 294° |
| 2026-02-18 06:40 | 38.39438 | 22.73997 | 26696 ft | 420 kts | 294° |
| 2026-02-18 06:40 | 38.40774 | 22.70736 | 27018 ft | 422 kts | 294° |
| 2026-02-18 06:41 | 38.42127 | 22.67428 | 27334 ft | 423 kts | 294° |
| 2026-02-18 06:41 | 38.43501 | 22.64067 | 27651 ft | 425 kts | 294° |
| 2026-02-18 06:41 | 38.44861 | 22.60738 | 27959 ft | 426 kts | 294° |
| 2026-02-18 06:41 | 38.46229 | 22.57382 | 28253 ft | 428 kts | 294° |
| 2026-02-18 06:42 | 38.47604 | 22.54006 | 28536 ft | 430 kts | 294° |
| 2026-02-18 06:42 | 38.48987 | 22.50608 | 28823 ft | 431 kts | 294° |
| 2026-02-18 06:42 | 38.50369 | 22.47208 | 29104 ft | 433 kts | 294° |
| 2026-02-18 06:43 | 38.53140 | 22.40379 | 29636 ft | 436 kts | 294° |
| 2026-02-18 06:43 | 38.54536 | 22.36933 | 29909 ft | 437 kts | 294° |
| 2026-02-18 06:43 | 38.55930 | 22.33502 | 30273 ft | 435 kts | 294° |
| 2026-02-18 06:43 | 38.57318 | 22.30082 | 30655 ft | 433 kts | 294° |
| 2026-02-18 06:44 | 38.58712 | 22.26646 | 31011 ft | 432 kts | 294° |
| 2026-02-18 06:44 | 38.60088 | 22.23245 | 31348 ft | 431 kts | 294° |
| 2026-02-18 06:44 | 38.61447 | 22.19881 | 31661 ft | 430 kts | 294° |
| 2026-02-18 06:44 | 38.62828 | 22.16460 | 31975 ft | 429 kts | 294° |
| 2026-02-18 06:45 | 38.64200 | 22.13058 | 32302 ft | 428 kts | 294° |
| 2026-02-18 06:45 | 38.65563 | 22.09675 | 32631 ft | 427 kts | 294° |
| 2026-02-18 06:45 | 38.66917 | 22.06312 | 32936 ft | 426 kts | 294° |
| 2026-02-18 06:45 | 38.68265 | 22.02955 | 33237 ft | 425 kts | 294° |
| 2026-02-18 06:46 | 38.69624 | 21.99568 | 33538 ft | 424 kts | 294° |
| 2026-02-18 06:46 | 38.70959 | 21.96240 | 33831 ft | 423 kts | 294° |
| 2026-02-18 06:46 | 38.72294 | 21.92908 | 34120 ft | 422 kts | 294° |
| 2026-02-18 06:47 | 38.74981 | 21.86185 | 34557 ft | 423 kts | 294° |
| 2026-02-18 06:47 | 38.76322 | 21.82827 | 34743 ft | 424 kts | 294° |
| 2026-02-18 06:47 | 38.77673 | 21.79441 | 34931 ft | 425 kts | 294° |
| 2026-02-18 06:47 | 38.79004 | 21.76097 | 35112 ft | 426 kts | 294° |
| 2026-02-18 06:48 | 38.80344 | 21.72732 | 35283 ft | 427 kts | 294° |
| 2026-02-18 06:48 | 38.81698 | 21.69324 | 35456 ft | 427 kts | 294° |
| 2026-02-18 06:48 | 38.83047 | 21.65925 | 35626 ft | 428 kts | 294° |
| 2026-02-18 06:48 | 38.84377 | 21.62573 | 35782 ft | 428 kts | 294° |
| 2026-02-18 06:49 | 38.87092 | 21.55716 | 35869 ft | 430 kts | 294° |
| 2026-02-18 06:49 | 38.89782 | 21.48910 | 35874 ft | 430 kts | 294° |
| 2026-02-18 06:50 | 38.92480 | 21.42070 | 35882 ft | 430 kts | 294° |
| 2026-02-18 06:51 | 38.96507 | 21.31829 | 35892 ft | 429 kts | 293° |
| 2026-02-18 06:51 | 38.99187 | 21.24993 | 35896 ft | 429 kts | 292° |
| 2026-02-18 06:52 | 39.01872 | 21.18128 | 35898 ft | 429 kts | 292° |
| 2026-02-18 06:52 | 39.04546 | 21.11279 | 35898 ft | 428 kts | 292° |
| 2026-02-18 06:53 | 39.07178 | 21.04480 | 35903 ft | 419 kts | 295° |
| 2026-02-18 06:53 | 39.09728 | 20.97869 | 35899 ft | 413 kts | 297° |
| 2026-02-18 06:54 | 39.12279 | 20.91274 | 35894 ft | 417 kts | 300° |
| 2026-02-18 06:54 | 39.14914 | 20.84488 | 35895 ft | 427 kts | 301° |
| 2026-02-18 06:55 | 39.18891 | 20.74237 | 35899 ft | 429 kts | 301° |
| 2026-02-18 06:55 | 39.21548 | 20.67337 | 35897 ft | 430 kts | 301° |
| 2026-02-18 06:56 | 39.24195 | 20.60441 | 35897 ft | 430 kts | 301° |
| 2026-02-18 06:56 | 39.26836 | 20.53547 | 35895 ft | 430 kts | 301° |
| 2026-02-18 06:57 | 39.29467 | 20.46660 | 35892 ft | 430 kts | 301° |
| 2026-02-18 06:57 | 39.32119 | 20.39700 | 35887 ft | 430 kts | 301° |
| 2026-02-18 06:58 | 39.34737 | 20.32814 | 35882 ft | 430 kts | 300° |
| 2026-02-18 06:59 | 39.38682 | 20.22410 | 35867 ft | 430 kts | 300° |
| 2026-02-18 06:59 | 39.41298 | 20.15485 | 35859 ft | 431 kts | 300° |
| 2026-02-18 07:00 | 39.44048 | 20.08655 | 35852 ft | 428 kts | 304° |
| 2026-02-18 07:00 | 39.47248 | 20.02346 | 35848 ft | 426 kts | 310° |
| 2026-02-18 07:01 | 39.50735 | 19.96297 | 35847 ft | 426 kts | 310° |
| 2026-02-18 07:01 | 39.54224 | 19.90282 | 35846 ft | 425 kts | 310° |
| 2026-02-18 07:02 | 39.57714 | 19.84246 | 35846 ft | 426 kts | 310° |
| 2026-02-18 07:02 | 39.61223 | 19.78161 | 35845 ft | 425 kts | 310° |
| 2026-02-18 07:03 | 39.66453 | 19.69064 | 35845 ft | 425 kts | 310° |
| 2026-02-18 07:03 | 39.69938 | 19.62985 | 35845 ft | 425 kts | 310° |
| 2026-02-18 07:04 | 39.73430 | 19.56887 | 35844 ft | 425 kts | 310° |
| 2026-02-18 07:04 | 39.76899 | 19.50816 | 35844 ft | 425 kts | 310° |
| 2026-02-18 07:05 | 39.80374 | 19.44721 | 35845 ft | 425 kts | 310° |
| 2026-02-18 07:05 | 39.83860 | 19.38596 | 35845 ft | 425 kts | 310° |
| 2026-02-18 07:06 | 39.87323 | 19.32500 | 35846 ft | 425 kts | 310° |
| 2026-02-18 07:07 | 39.92548 | 19.23282 | 35845 ft | 425 kts | 310° |
| 2026-02-18 07:07 | 39.95988 | 19.17191 | 35847 ft | 424 kts | 310° |
| 2026-02-18 07:08 | 39.99412 | 19.11106 | 35858 ft | 418 kts | 311° |
| 2026-02-18 07:08 | 40.02745 | 19.05106 | 35879 ft | 413 kts | 311° |
| 2026-02-18 07:09 | 40.05694 | 18.98771 | 35907 ft | 411 kts | 307° |
| 2026-02-18 07:09 | 40.08153 | 18.91990 | 35938 ft | 410 kts | 302° |
| 2026-02-18 07:10 | 40.10331 | 18.85136 | 35966 ft | 409 kts | 302° |
| 2026-02-18 07:10 | 40.12494 | 18.78263 | 35975 ft | 410 kts | 302° |
| 2026-02-18 07:11 | 40.15727 | 18.67940 | 35980 ft | 410 kts | 302° |
| 2026-02-18 07:11 | 40.17884 | 18.61027 | 35982 ft | 410 kts | 302° |
| 2026-02-18 07:12 | 40.20024 | 18.54150 | 35981 ft | 410 kts | 302° |
| 2026-02-18 07:12 | 40.22172 | 18.47228 | 35981 ft | 410 kts | 302° |
| 2026-02-18 07:13 | 40.24304 | 18.40337 | 35982 ft | 410 kts | 302° |
| 2026-02-18 07:13 | 40.26429 | 18.33455 | 35981 ft | 410 kts | 301° |
| 2026-02-18 07:14 | 40.28571 | 18.26500 | 35981 ft | 410 kts | 301° |
| 2026-02-18 07:15 | 40.31764 | 18.16099 | 35981 ft | 411 kts | 301° |
| 2026-02-18 07:15 | 40.33885 | 18.09166 | 35982 ft | 411 kts | 301° |
| 2026-02-18 07:16 | 40.36008 | 18.02211 | 35982 ft | 411 kts | 301° |
| 2026-02-18 07:16 | 40.38125 | 17.95255 | 35981 ft | 411 kts | 301° |
| 2026-02-18 07:17 | 40.40233 | 17.88310 | 35981 ft | 411 kts | 301° |
| 2026-02-18 07:17 | 40.42336 | 17.81369 | 35981 ft | 411 kts | 301° |
| 2026-02-18 07:18 | 40.44439 | 17.74406 | 35981 ft | 411 kts | 301° |
| 2026-02-18 07:18 | 40.46538 | 17.67439 | 35981 ft | 411 kts | 301° |
| 2026-02-18 07:19 | 40.49685 | 17.56959 | 35980 ft | 411 kts | 301° |
| 2026-02-18 07:19 | 40.51765 | 17.50011 | 35981 ft | 411 kts | 301° |
| 2026-02-18 07:20 | 40.53850 | 17.43029 | 35985 ft | 411 kts | 301° |
| 2026-02-18 07:20 | 40.55922 | 17.36067 | 35987 ft | 411 kts | 301° |
| 2026-02-18 07:21 | 40.58009 | 17.29041 | 35995 ft | 412 kts | 301° |
| 2026-02-18 07:21 | 40.60080 | 17.22046 | 36002 ft | 412 kts | 301° |
| 2026-02-18 07:22 | 40.62143 | 17.15013 | 36007 ft | 412 kts | 300° |
| 2026-02-18 07:23 | 40.65129 | 17.04433 | 36008 ft | 412 kts | 300° |
| 2026-02-18 07:23 | 40.68095 | 16.93860 | 36010 ft | 408 kts | 301° |
| 2026-02-18 07:24 | 40.70038 | 16.86922 | 36009 ft | 405 kts | 302° |
| 2026-02-18 07:24 | 40.71979 | 16.79988 | 36010 ft | 401 kts | 302° |
| 2026-02-18 07:25 | 40.73902 | 16.73110 | 36010 ft | 399 kts | 302° |
| 2026-02-18 07:25 | 40.75805 | 16.66299 | 36009 ft | 398 kts | 302° |
| 2026-02-18 07:26 | 40.77713 | 16.59440 | 36007 ft | 397 kts | 302° |
| 2026-02-18 07:27 | 40.80555 | 16.49186 | 35552 ft | 400 kts | 302° |
| 2026-02-18 07:27 | 40.81510 | 16.45735 | 34893 ft | 401 kts | 302° |
| 2026-02-18 07:27 | 40.82455 | 16.42301 | 34195 ft | 402 kts | 302° |
| 2026-02-18 07:27 | 40.83412 | 16.38828 | 33462 ft | 402 kts | 302° |
| 2026-02-18 07:28 | 40.84359 | 16.35391 | 32732 ft | 403 kts | 302° |
| 2026-02-18 07:28 | 40.85308 | 16.31939 | 31945 ft | 405 kts | 301° |
| 2026-02-18 07:28 | 40.86274 | 16.28432 | 31162 ft | 406 kts | 300° |
| 2026-02-18 07:28 | 40.87236 | 16.24924 | 30369 ft | 407 kts | 300° |
| 2026-02-18 07:29 | 40.88198 | 16.21412 | 29592 ft | 408 kts | 299° |
| 2026-02-18 07:29 | 40.89138 | 16.17959 | 29074 ft | 403 kts | 299° |
| 2026-02-18 07:29 | 40.90077 | 16.14497 | 28563 ft | 397 kts | 299° |
| 2026-02-18 07:29 | 40.90999 | 16.11095 | 28044 ft | 393 kts | 299° |
| 2026-02-18 07:30 | 40.91915 | 16.07722 | 27517 ft | 389 kts | 299° |
| 2026-02-18 07:30 | 40.92820 | 16.04389 | 26971 ft | 385 kts | 299° |
| 2026-02-18 07:30 | 40.93720 | 16.01073 | 26422 ft | 382 kts | 298° |
| 2026-02-18 07:31 | 40.95501 | 15.94504 | 25309 ft | 376 kts | 298° |
| 2026-02-18 07:31 | 40.96379 | 15.91251 | 24753 ft | 373 kts | 298° |
| 2026-02-18 07:31 | 40.97257 | 15.88003 | 24186 ft | 371 kts | 298° |
| 2026-02-18 07:31 | 40.98112 | 15.84833 | 23630 ft | 369 kts | 298° |
| 2026-02-18 07:32 | 40.98968 | 15.81654 | 23065 ft | 367 kts | 297° |
| 2026-02-18 07:32 | 40.99827 | 15.78457 | 22497 ft | 366 kts | 297° |
| 2026-02-18 07:32 | 41.00667 | 15.75329 | 21932 ft | 364 kts | 297° |
| 2026-02-18 07:32 | 41.01494 | 15.72176 | 21365 ft | 364 kts | 295° |
| 2026-02-18 07:33 | 41.02200 | 15.68969 | 20802 ft | 366 kts | 291° |
| 2026-02-18 07:33 | 41.02784 | 15.65677 | 20291 ft | 365 kts | 290° |
| 2026-02-18 07:33 | 41.03325 | 15.62441 | 19837 ft | 361 kts | 289° |
| 2026-02-18 07:33 | 41.03862 | 15.59201 | 19397 ft | 358 kts | 289° |
| 2026-02-18 07:34 | 41.04391 | 15.56010 | 18917 ft | 356 kts | 289° |
| 2026-02-18 07:34 | 41.04925 | 15.52796 | 18389 ft | 355 kts | 289° |
| 2026-02-18 07:34 | 41.05451 | 15.49631 | 17850 ft | 355 kts | 288° |
| 2026-02-18 07:34 | 41.05978 | 15.46450 | 17298 ft | 355 kts | 288° |
| 2026-02-18 07:35 | 41.06508 | 15.43244 | 16738 ft | 355 kts | 288° |
| 2026-02-18 07:35 | 41.07030 | 15.40082 | 16181 ft | 355 kts | 288° |
| 2026-02-18 07:35 | 41.07560 | 15.36862 | 15611 ft | 355 kts | 287° |
| 2026-02-18 07:35 | 41.08076 | 15.33720 | 15053 ft | 354 kts | 286° |
| 2026-02-18 07:36 | 41.08601 | 15.30516 | 14480 ft | 354 kts | 286° |
| 2026-02-18 07:36 | 41.09125 | 15.27312 | 13907 ft | 354 kts | 285° |
| 2026-02-18 07:36 | 41.10160 | 15.20970 | 12774 ft | 353 kts | 285° |
| 2026-02-18 07:37 | 41.10526 | 15.17761 | 12216 ft | 355 kts | 277° |
| 2026-02-18 07:37 | 41.10533 | 15.14448 | 11689 ft | 356 kts | 268° |
| 2026-02-18 07:37 | 41.10283 | 15.11229 | 11260 ft | 352 kts | 265° |
| 2026-02-18 07:37 | 41.09979 | 15.08004 | 10834 ft | 348 kts | 265° |
| 2026-02-18 07:38 | 41.09678 | 15.04864 | 10509 ft | 341 kts | 265° |
| 2026-02-18 07:38 | 41.09387 | 15.01809 | 10370 ft | 328 kts | 265° |
| 2026-02-18 07:38 | 41.09110 | 14.98867 | 10220 ft | 317 kts | 265° |
| 2026-02-18 07:38 | 41.08844 | 14.96021 | 10079 ft | 297 kts | 265° |
| 2026-02-18 07:39 | 41.08598 | 14.93383 | 9779 ft | 286 kts | 265° |
| 2026-02-18 07:39 | 41.08359 | 14.90781 | 9384 ft | 279 kts | 265° |
| 2026-02-18 07:39 | 41.08126 | 14.88247 | 9009 ft | 277 kts | 265° |
| 2026-02-18 07:39 | 41.07892 | 14.85695 | 8645 ft | 279 kts | 265° |
| 2026-02-18 07:40 | 41.07657 | 14.83159 | 8287 ft | 280 kts | 265° |
| 2026-02-18 07:40 | 41.07418 | 14.80593 | 7925 ft | 281 kts | 265° |
| 2026-02-18 07:40 | 41.06941 | 14.75508 | 7318 ft | 267 kts | 265° |
| 2026-02-18 07:41 | 41.06717 | 14.73138 | 7246 ft | 256 kts | 265° |
| 2026-02-18 07:41 | 41.06499 | 14.70836 | 7161 ft | 246 kts | 265° |
| 2026-02-18 07:41 | 41.06242 | 14.68625 | 7072 ft | 237 kts | 261° |
| 2026-02-18 07:41 | 41.05852 | 14.66528 | 6981 ft | 229 kts | 253° |
| 2026-02-18 07:42 | 41.05217 | 14.64598 | 6749 ft | 229 kts | 245° |
| 2026-02-18 07:42 | 41.04450 | 14.62730 | 6416 ft | 231 kts | 243° |
| 2026-02-18 07:42 | 41.03662 | 14.60940 | 6084 ft | 224 kts | 242° |
| 2026-02-18 07:42 | 41.02868 | 14.59209 | 5751 ft | 217 kts | 241° |
| 2026-02-18 07:43 | 41.02079 | 14.57524 | 5425 ft | 211 kts | 240° |
| 2026-02-18 07:43 | 41.01308 | 14.55895 | 5111 ft | 206 kts | 240° |
| 2026-02-18 07:43 | 41.00559 | 14.54322 | 4827 ft | 199 kts | 240° |
| 2026-02-18 07:43 | 40.99849 | 14.52835 | 4617 ft | 188 kts | 240° |
| 2026-02-18 07:44 | 40.99149 | 14.51362 | 4315 ft | 188 kts | 240° |
| 2026-02-18 07:44 | 40.98453 | 14.49898 | 4018 ft | 188 kts | 240° |
| 2026-02-18 07:44 | 40.97078 | 14.47004 | 3432 ft | 180 kts | 239° |
| 2026-02-18 07:45 | 40.96418 | 14.45615 | 3157 ft | 177 kts | 239° |
| 2026-02-18 07:45 | 40.95772 | 14.44252 | 2901 ft | 175 kts | 239° |
| 2026-02-18 07:45 | 40.95127 | 14.42890 | 2656 ft | 173 kts | 239° |
| 2026-02-18 07:45 | 40.94492 | 14.41547 | 2414 ft | 171 kts | 239° |
| 2026-02-18 07:46 | 40.93859 | 14.40209 | 2171 ft | 170 kts | 239° |
| 2026-02-18 07:46 | 40.93254 | 14.38928 | 1954 ft | 165 kts | 239° |
| 2026-02-18 07:46 | 40.92651 | 14.37654 | 1711 ft | 158 kts | 239° |
| 2026-02-18 07:46 | 40.92088 | 14.36463 | 1450 ft | 147 kts | 239° |
| 2026-02-18 07:47 | 40.91561 | 14.35347 | 1216 ft | 136 kts | 239° |
| 2026-02-18 07:47 | 40.91076 | 14.34320 | 1026 ft | 132 kts | 238° |
| 2026-02-18 07:47 | 40.90588 | 14.33286 | 849 ft | 132 kts | 238° |
| 2026-02-18 07:47 | 40.90104 | 14.32259 | 647 ft | 131 kts | 238° |
| 2026-02-18 07:48 | 40.89619 | 14.31228 | 450 ft | 131 kts | 238° |
| 2026-02-18 07:48 | 40.89139 | 14.30222 | 262 ft | 130 kts | 238° |
| 2026-02-18 07:48 | 40.88430 | 14.28708 | 273 ft | 50 kts | 238° |
| 2026-02-18 07:49 | 40.88292 | 14.28483 | 280 ft | 24 kts | 219° |
| 2026-02-18 07:49 | 40.88163 | 14.28376 | 287 ft | 20 kts | 208° |
| 2026-02-18 07:49 | 40.88092 | 14.28326 | 290 ft | 6 kts | 206° |
| 2026-02-18 07:49 | 40.88070 | 14.28275 | 290 ft | 8 kts | 264° |
| 2026-02-18 07:50 | 40.88050 | 14.28195 | 289 ft | 10 kts | 238° |
| 2026-02-18 07:50 | 40.87999 | 14.28133 | 290 ft | 9 kts | 188° |
| 2026-02-18 07:50 | 40.87936 | 14.28149 | 293 ft | 8 kts | 165° |
| 2026-02-18 07:50 | 40.87894 | 14.28164 | 295 ft | 3 kts | 165° |
| 2026-02-18 07:51 | 40.87891 | 14.28165 | 295 ft | 0 kts | 165° |